Main page
METAR-TAF:

METAR-TAF

Airports :

Dehradun Airport

Dehradun, India

latitude: 30-11-23N, longitude: 78-10-49E, elevation: 558 m

METAR: missing

Time: 15:56 (10:26 UTC)

Forecast

The report was made 5 hours and 26 minutes ago, at 05:00 UTC
Forecast valid from 24 at 06 UTC to 24 at 15 UTC
Wind 2 kt from variable directions
Visibility: 6000 m
Scattered clouds at a height of 2000 ft
Broken clouds at a height of 7000 ft
Temporary
from 24 at 09 UTC to 24 at 12 UTC
Visibility: 3000 m
Few clouds at a height of 3000 ft, Cumulonimbus.
Overcast at a height of 7000 ft
thunderstorm, light rain
Becoming
from 24 at 12 UTC to 24 at 14 UTC
Visibility: 3000 m
mist

TAF: VIDN 240500Z 2406/2415 VRB02KT 6000 SCT020 BKN070 TEMPO 2409/2412 3000 -TSRA FEW030CB OVC070 BECMG 2412/2414 3000 BR

Weather observations and forecasts of more than 4000 airports (METAR and TAF reports).

The available stations are represented by yellow and red dots on the map.

Hover mouse over dot to see the name of the station.

Then click to see weather observations and forecasts.

To change the map : click on the green buttons with a black cross to zoom in, on the green button with a dash to zoom out, or on the green arrows for adjacent maps.


METAR-TAF: